sensor_id;sensor_type;location;lat;lon;timestamp;P1;durP1;ratioP1;P2;durP2;ratioP2
65822;SDS011;52585;47.566;19.056;2022-08-19T00:00:38;15.10;;;5.40;;
65822;SDS011;52585;47.566;19.056;2022-08-19T00:03:05;7.20;;;5.60;;
65822;SDS011;52585;47.566;19.056;2022-08-19T00:05:32;7.20;;;5.50;;
65822;SDS011;52585;47.566;19.056;2022-08-19T00:07:57;10.40;;;5.50;;
65822;SDS011;52585;47.566;19.056;2022-08-19T00:10:23;6.90;;;5.60;;
65822;SDS011;52585;47.566;19.056;2022-08-19T00:12:49;6.60;;;5.50;;
65822;SDS011;52585;47.566;19.056;2022-08-19T00:15:18;7.50;;;5.50;;
65822;SDS011;52585;47.566;19.056;2022-08-19T00:17:46;9.60;;;5.30;;
65822;SDS011;52585;47.566;19.056;2022-08-19T00:20:16;9.10;;;5.40;;
65822;SDS011;52585;47.566;19.056;2022-08-19T00:22:45;10.40;;;6.10;;
65822;SDS011;52585;47.566;19.056;2022-08-19T00:25:13;7.10;;;5.50;;
65822;SDS011;52585;47.566;19.056;2022-08-19T00:27:40;7.80;;;5.80;;
65822;SDS011;52585;47.566;19.056;2022-08-19T00:30:06;7.00;;;5.90;;
65822;SDS011;52585;47.566;19.056;2022-08-19T00:32:35;10.10;;;5.50;;
65822;SDS011;52585;47.566;19.056;2022-08-19T00:35:01;9.80;;;5.70;;
65822;SDS011;52585;47.566;19.056;2022-08-19T00:37:28;9.00;;;5.70;;
65822;SDS011;52585;47.566;19.056;2022-08-19T00:39:54;7.30;;;5.50;;
65822;SDS011;52585;47.566;19.056;2022-08-19T00:42:22;7.40;;;5.70;;
65822;SDS011;52585;47.566;19.056;2022-08-19T00:44:48;16.90;;;5.80;;
65822;SDS011;52585;47.566;19.056;2022-08-19T00:47:15;7.60;;;5.60;;
65822;SDS011;52585;47.566;19.056;2022-08-19T00:52:37;7.50;;;5.40;;
65822;SDS011;52585;47.566;19.056;2022-08-19T00:55:12;7.50;;;5.70;;
65822;SDS011;52585;47.566;19.056;2022-08-19T00:57:45;7.80;;;5.70;;
65822;SDS011;52585;47.566;19.056;2022-08-19T01:00:18;8.60;;;5.90;;
65822;SDS011;52585;47.566;19.056;2022-08-19T01:02:44;10.40;;;5.90;;
65822;SDS011;52585;47.566;19.056;2022-08-19T01:05:14;7.40;;;5.70;;
65822;SDS011;52585;47.566;19.056;2022-08-19T01:07:47;13.80;;;6.20;;
65822;SDS011;52585;47.566;19.056;2022-08-19T01:10:17;10.30;;;5.30;;
65822;SDS011;52585;47.566;19.056;2022-08-19T01:12:47;9.10;;;5.60;;
65822;SDS011;52585;47.566;19.056;2022-08-19T01:15:24;6.50;;;5.80;;
65822;SDS011;52585;47.566;19.056;2022-08-19T01:17:55;11.00;;;6.10;;
65822;SDS011;52585;47.566;19.056;2022-08-19T01:20:24;11.90;;;6.20;;
65822;SDS011;52585;47.566;19.056;2022-08-19T01:22:53;12.40;;;6.00;;
65822;SDS011;52585;47.566;19.056;2022-08-19T01:25:47;7.00;;;5.50;;
65822;SDS011;52585;47.566;19.056;2022-08-19T01:28:22;7.20;;;5.60;;
65822;SDS011;52585;47.566;19.056;2022-08-19T01:30:51;5.80;;;5.30;;
65822;SDS011;52585;47.566;19.056;2022-08-19T01:33:19;12.50;;;5.40;;
65822;SDS011;52585;47.566;19.056;2022-08-19T01:35:46;10.40;;;6.10;;
65822;SDS011;52585;47.566;19.056;2022-08-19T01:38:24;10.20;;;6.00;;
65822;SDS011;52585;47.566;19.056;2022-08-19T01:40:52;10.40;;;6.60;;
65822;SDS011;52585;47.566;19.056;2022-08-19T01:43:18;9.40;;;6.10;;
65822;SDS011;52585;47.566;19.056;2022-08-19T01:45:45;7.20;;;6.10;;
65822;SDS011;52585;47.566;19.056;2022-08-19T01:48:12;9.90;;;5.70;;
65822;SDS011;52585;47.566;19.056;2022-08-19T01:50:38;6.60;;;5.40;;
65822;SDS011;52585;47.566;19.056;2022-08-19T01:53:07;8.80;;;5.70;;
65822;SDS011;52585;47.566;19.056;2022-08-19T01:55:37;10.90;;;5.20;;
65822;SDS011;52585;47.566;19.056;2022-08-19T01:58:06;7.90;;;6.10;;
65822;SDS011;52585;47.566;19.056;2022-08-19T02:00:37;10.80;;;5.90;;
65822;SDS011;52585;47.566;19.056;2022-08-19T02:03:03;7.90;;;5.70;;
65822;SDS011;52585;47.566;19.056;2022-08-19T02:05:29;9.70;;;5.80;;
65822;SDS011;52585;47.566;19.056;2022-08-19T02:07:56;6.20;;;5.60;;
65822;SDS011;52585;47.566;19.056;2022-08-19T02:10:22;9.00;;;6.20;;
65822;SDS011;52585;47.566;19.056;2022-08-19T02:12:49;7.80;;;6.30;;
65822;SDS011;52585;47.566;19.056;2022-08-19T02:15:15;7.90;;;5.60;;
65822;SDS011;52585;47.566;19.056;2022-08-19T02:17:43;10.30;;;6.20;;
65822;SDS011;52585;47.566;19.056;2022-08-19T02:20:10;6.60;;;6.00;;
65822;SDS011;52585;47.566;19.056;2022-08-19T02:22:37;6.70;;;5.70;;
65822;SDS011;52585;47.566;19.056;2022-08-19T02:25:05;10.40;;;6.00;;
65822;SDS011;52585;47.566;19.056;2022-08-19T02:27:31;6.30;;;5.60;;
65822;SDS011;52585;47.566;19.056;2022-08-19T02:29:58;9.00;;;5.90;;
65822;SDS011;52585;47.566;19.056;2022-08-19T02:32:24;6.70;;;5.40;;
65822;SDS011;52585;47.566;19.056;2022-08-19T02:34:49;9.30;;;5.70;;
65822;SDS011;52585;47.566;19.056;2022-08-19T02:37:15;7.40;;;5.60;;
65822;SDS011;52585;47.566;19.056;2022-08-19T02:39:59;6.90;;;6.10;;
65822;SDS011;52585;47.566;19.056;2022-08-19T02:42:25;7.00;;;5.70;;
65822;SDS011;52585;47.566;19.056;2022-08-19T02:44:51;12.60;;;6.50;;
65822;SDS011;52585;47.566;19.056;2022-08-19T02:47:20;6.90;;;6.20;;
65822;SDS011;52585;47.566;19.056;2022-08-19T02:49:46;9.80;;;6.00;;
65822;SDS011;52585;47.566;19.056;2022-08-19T02:52:14;13.60;;;6.10;;
65822;SDS011;52585;47.566;19.056;2022-08-19T02:54:41;10.10;;;6.00;;
65822;SDS011;52585;47.566;19.056;2022-08-19T02:57:06;7.20;;;5.90;;
65822;SDS011;52585;47.566;19.056;2022-08-19T02:59:33;14.30;;;6.20;;
65822;SDS011;52585;47.566;19.056;2022-08-19T03:01:59;7.70;;;6.20;;
65822;SDS011;52585;47.566;19.056;2022-08-19T03:04:25;7.50;;;6.10;;
65822;SDS011;52585;47.566;19.056;2022-08-19T03:06:51;12.10;;;5.80;;
65822;SDS011;52585;47.566;19.056;2022-08-19T03:09:19;10.80;;;6.80;;
65822;SDS011;52585;47.566;19.056;2022-08-19T03:11:45;10.40;;;5.60;;
65822;SDS011;52585;47.566;19.056;2022-08-19T03:14:11;6.90;;;5.40;;
65822;SDS011;52585;47.566;19.056;2022-08-19T03:16:45;9.50;;;6.50;;
65822;SDS011;52585;47.566;19.056;2022-08-19T03:19:15;6.70;;;5.70;;
65822;SDS011;52585;47.566;19.056;2022-08-19T03:21:43;9.80;;;6.10;;
65822;SDS011;52585;47.566;19.056;2022-08-19T03:24:13;6.30;;;5.70;;
65822;SDS011;52585;47.566;19.056;2022-08-19T03:26:47;9.50;;;6.10;;
65822;SDS011;52585;47.566;19.056;2022-08-19T03:29:17;10.60;;;6.20;;
65822;SDS011;52585;47.566;19.056;2022-08-19T03:31:44;9.60;;;6.10;;
65822;SDS011;52585;47.566;19.056;2022-08-19T03:34:12;16.00;;;6.70;;
65822;SDS011;52585;47.566;19.056;2022-08-19T03:36:43;14.50;;;6.10;;
65822;SDS011;52585;47.566;19.056;2022-08-19T03:39:10;10.40;;;6.10;;
65822;SDS011;52585;47.566;19.056;2022-08-19T03:41:38;9.20;;;6.40;;
65822;SDS011;52585;47.566;19.056;2022-08-19T03:44:05;8.50;;;6.00;;
65822;SDS011;52585;47.566;19.056;2022-08-19T03:46:35;8.60;;;6.10;;
65822;SDS011;52585;47.566;19.056;2022-08-19T03:49:04;9.10;;;5.70;;
65822;SDS011;52585;47.566;19.056;2022-08-19T03:51:38;12.40;;;6.40;;
65822;SDS011;52585;47.566;19.056;2022-08-19T03:54:10;6.80;;;6.10;;
65822;SDS011;52585;47.566;19.056;2022-08-19T03:56:39;7.60;;;6.30;;
65822;SDS011;52585;47.566;19.056;2022-08-19T03:59:11;7.40;;;6.70;;
65822;SDS011;52585;47.566;19.056;2022-08-19T04:01:39;12.60;;;6.30;;
65822;SDS011;52585;47.566;19.056;2022-08-19T04:04:05;8.20;;;6.40;;
65822;SDS011;52585;47.566;19.056;2022-08-19T04:06:33;8.30;;;6.10;;
65822;SDS011;52585;47.566;19.056;2022-08-19T04:09:03;10.20;;;6.20;;
65822;SDS011;52585;47.566;19.056;2022-08-19T04:11:38;6.90;;;6.30;;
65822;SDS011;52585;47.566;19.056;2022-08-19T04:14:12;8.30;;;6.60;;
65822;SDS011;52585;47.566;19.056;2022-08-19T04:16:39;8.70;;;6.60;;
65822;SDS011;52585;47.566;19.056;2022-08-19T04:19:05;9.30;;;6.60;;
65822;SDS011;52585;47.566;19.056;2022-08-19T04:21:32;6.80;;;6.20;;
65822;SDS011;52585;47.566;19.056;2022-08-19T04:24:00;10.90;;;6.30;;
65822;SDS011;52585;47.566;19.056;2022-08-19T04:26:30;9.00;;;6.50;;
65822;SDS011;52585;47.566;19.056;2022-08-19T04:29:00;12.80;;;6.60;;
65822;SDS011;52585;47.566;19.056;2022-08-19T04:31:30;11.90;;;6.50;;
65822;SDS011;52585;47.566;19.056;2022-08-19T04:34:01;8.60;;;6.50;;
65822;SDS011;52585;47.566;19.056;2022-08-19T04:36:33;9.80;;;6.80;;
65822;SDS011;52585;47.566;19.056;2022-08-19T04:39:06;12.10;;;7.10;;
65822;SDS011;52585;47.566;19.056;2022-08-19T04:41:34;13.40;;;6.50;;
65822;SDS011;52585;47.566;19.056;2022-08-19T04:44:19;9.40;;;6.30;;
65822;SDS011;52585;47.566;19.056;2022-08-19T04:46:47;10.90;;;6.40;;
65822;SDS011;52585;47.566;19.056;2022-08-19T04:49:15;9.40;;;7.10;;
65822;SDS011;52585;47.566;19.056;2022-08-19T04:51:45;12.00;;;6.50;;
65822;SDS011;52585;47.566;19.056;2022-08-19T04:54:13;9.10;;;6.50;;
65822;SDS011;52585;47.566;19.056;2022-08-19T04:56:40;9.60;;;6.70;;
65822;SDS011;52585;47.566;19.056;2022-08-19T04:59:06;13.50;;;6.60;;
65822;SDS011;52585;47.566;19.056;2022-08-19T05:01:34;12.40;;;6.30;;
65822;SDS011;52585;47.566;19.056;2022-08-19T05:04:01;12.90;;;6.70;;
65822;SDS011;52585;47.566;19.056;2022-08-19T05:06:30;9.50;;;6.30;;
65822;SDS011;52585;47.566;19.056;2022-08-19T05:09:00;12.00;;;7.00;;
65822;SDS011;52585;47.566;19.056;2022-08-19T05:11:35;10.20;;;6.70;;
65822;SDS011;52585;47.566;19.056;2022-08-19T05:14:07;10.10;;;6.20;;
65822;SDS011;52585;47.566;19.056;2022-08-19T05:16:34;14.20;;;6.80;;
65822;SDS011;52585;47.566;19.056;2022-08-19T05:18:59;11.50;;;6.00;;
65822;SDS011;52585;47.566;19.056;2022-08-19T05:21:45;7.10;;;6.40;;
65822;SDS011;52585;47.566;19.056;2022-08-19T05:24:29;9.20;;;6.20;;
65822;SDS011;52585;47.566;19.056;2022-08-19T05:26:56;11.90;;;6.50;;
65822;SDS011;52585;47.566;19.056;2022-08-19T05:29:24;7.90;;;6.60;;
65822;SDS011;52585;47.566;19.056;2022-08-19T05:31:52;12.10;;;6.40;;
65822;SDS011;52585;47.566;19.056;2022-08-19T05:34:20;7.60;;;6.70;;
65822;SDS011;52585;47.566;19.056;2022-08-19T05:36:51;12.00;;;6.50;;
65822;SDS011;52585;47.566;19.056;2022-08-19T05:39:21;10.80;;;6.40;;
65822;SDS011;52585;47.566;19.056;2022-08-19T05:41:51;6.60;;;6.00;;
65822;SDS011;52585;47.566;19.056;2022-08-19T05:44:19;9.70;;;6.60;;
65822;SDS011;52585;47.566;19.056;2022-08-19T05:46:46;10.60;;;6.20;;
65822;SDS011;52585;47.566;19.056;2022-08-19T05:49:14;9.60;;;5.90;;
65822;SDS011;52585;47.566;19.056;2022-08-19T05:51:42;7.20;;;5.70;;
65822;SDS011;52585;47.566;19.056;2022-08-19T05:54:08;7.00;;;6.00;;
65822;SDS011;52585;47.566;19.056;2022-08-19T05:56:36;7.40;;;5.80;;
65822;SDS011;52585;47.566;19.056;2022-08-19T05:59:04;6.40;;;5.60;;
65822;SDS011;52585;47.566;19.056;2022-08-19T06:01:35;8.50;;;6.00;;
65822;SDS011;52585;47.566;19.056;2022-08-19T06:04:03;9.00;;;5.90;;
65822;SDS011;52585;47.566;19.056;2022-08-19T06:06:29;8.70;;;5.60;;
65822;SDS011;52585;47.566;19.056;2022-08-19T06:08:55;13.40;;;6.10;;
65822;SDS011;52585;47.566;19.056;2022-08-19T06:11:36;13.80;;;5.90;;
65822;SDS011;52585;47.566;19.056;2022-08-19T06:14:08;5.80;;;5.20;;
65822;SDS011;52585;47.566;19.056;2022-08-19T06:16:38;10.10;;;6.00;;
65822;SDS011;52585;47.566;19.056;2022-08-19T06:19:11;7.70;;;5.40;;
65822;SDS011;52585;47.566;19.056;2022-08-19T06:21:41;6.60;;;5.50;;
65822;SDS011;52585;47.566;19.056;2022-08-19T06:24:11;9.50;;;5.70;;
65822;SDS011;52585;47.566;19.056;2022-08-19T06:26:42;8.00;;;5.50;;
65822;SDS011;52585;47.566;19.056;2022-08-19T07:56:56;5.50;;;4.90;;
65822;SDS011;52585;47.566;19.056;2022-08-19T07:59:24;5.40;;;4.80;;
65822;SDS011;52585;47.566;19.056;2022-08-19T08:01:50;6.70;;;5.10;;
65822;SDS011;52585;47.566;19.056;2022-08-19T08:04:17;5.30;;;4.80;;
65822;SDS011;52585;47.566;19.056;2022-08-19T08:07:04;5.20;;;4.70;;
65822;SDS011;52585;47.566;19.056;2022-08-19T08:09:50;5.80;;;5.10;;
65822;SDS011;52585;47.566;19.056;2022-08-19T08:12:27;8.40;;;5.00;;
65822;SDS011;52585;47.566;19.056;2022-08-19T08:15:01;11.70;;;5.20;;
65822;SDS011;52585;47.566;19.056;2022-08-19T08:17:34;5.90;;;4.80;;
65822;SDS011;52585;47.566;19.056;2022-08-19T08:20:03;8.00;;;5.20;;
65822;SDS011;52585;47.566;19.056;2022-08-19T08:22:32;6.40;;;5.10;;
65822;SDS011;52585;47.566;19.056;2022-08-19T08:25:21;5.10;;;4.60;;
65822;SDS011;52585;47.566;19.056;2022-08-19T08:27:49;5.40;;;4.50;;
65822;SDS011;52585;47.566;19.056;2022-08-19T08:30:21;10.10;;;4.70;;
65822;SDS011;52585;47.566;19.056;2022-08-19T08:32:49;9.70;;;4.10;;
65822;SDS011;52585;47.566;19.056;2022-08-19T08:35:18;6.90;;;4.30;;
65822;SDS011;52585;47.566;19.056;2022-08-19T08:37:47;9.10;;;5.10;;
65822;SDS011;52585;47.566;19.056;2022-08-19T08:43:38;8.60;;;4.70;;
65822;SDS011;52585;47.566;19.056;2022-08-19T08:46:13;8.10;;;5.10;;
65822;SDS011;52585;47.566;19.056;2022-08-19T08:51:42;5.20;;;4.40;;
65822;SDS011;52585;47.566;19.056;2022-08-19T08:54:15;10.30;;;4.30;;
65822;SDS011;52585;47.566;19.056;2022-08-19T08:56:45;4.50;;;4.10;;
65822;SDS011;52585;47.566;19.056;2022-08-19T08:59:28;5.50;;;4.20;;
65822;SDS011;52585;47.566;19.056;2022-08-19T09:01:58;7.50;;;4.50;;
65822;SDS011;52585;47.566;19.056;2022-08-19T09:04:23;5.80;;;4.40;;
65822;SDS011;52585;47.566;19.056;2022-08-19T09:07:27;4.60;;;4.10;;
65822;SDS011;52585;47.566;19.056;2022-08-19T09:16:19;8.10;;;5.70;;
65822;SDS011;52585;47.566;19.056;2022-08-19T09:18:56;8.10;;;4.80;;
65822;SDS011;52585;47.566;19.056;2022-08-19T09:21:26;7.60;;;4.70;;
65822;SDS011;52585;47.566;19.056;2022-08-19T09:23:53;6.20;;;4.80;;
65822;SDS011;52585;47.566;19.056;2022-08-19T09:26:21;11.90;;;6.50;;
65822;SDS011;52585;47.566;19.056;2022-08-19T09:28:49;6.20;;;4.70;;
65822;SDS011;52585;47.566;19.056;2022-08-19T09:31:26;9.90;;;4.40;;
65822;SDS011;52585;47.566;19.056;2022-08-19T09:33:54;8.10;;;6.10;;
65822;SDS011;52585;47.566;19.056;2022-08-19T09:36:25;8.60;;;5.40;;
65822;SDS011;52585;47.566;19.056;2022-08-19T09:38:54;6.40;;;4.70;;
65822;SDS011;52585;47.566;19.056;2022-08-19T09:41:22;11.00;;;4.80;;
65822;SDS011;52585;47.566;19.056;2022-08-19T09:43:51;9.40;;;4.40;;
65822;SDS011;52585;47.566;19.056;2022-08-19T09:46:22;5.20;;;4.70;;
65822;SDS011;52585;47.566;19.056;2022-08-19T09:48:50;9.00;;;4.30;;
65822;SDS011;52585;47.566;19.056;2022-08-19T09:51:21;8.80;;;4.00;;
65822;SDS011;52585;47.566;19.056;2022-08-19T09:53:49;6.10;;;3.90;;
65822;SDS011;52585;47.566;19.056;2022-08-19T09:56:18;4.90;;;3.90;;
65822;SDS011;52585;47.566;19.056;2022-08-19T09:58:45;7.30;;;4.00;;
65822;SDS011;52585;47.566;19.056;2022-08-19T10:01:17;8.90;;;4.00;;
65822;SDS011;52585;47.566;19.056;2022-08-19T10:03:49;9.40;;;4.30;;
65822;SDS011;52585;47.566;19.056;2022-08-19T10:06:20;6.70;;;4.20;;
65822;SDS011;52585;47.566;19.056;2022-08-19T10:08:48;10.70;;;4.50;;
65822;SDS011;52585;47.566;19.056;2022-08-19T10:11:15;7.20;;;3.70;;
65822;SDS011;52585;47.566;19.056;2022-08-19T10:13:43;9.80;;;3.90;;
65822;SDS011;52585;47.566;19.056;2022-08-19T10:16:14;6.60;;;4.10;;
65822;SDS011;52585;47.566;19.056;2022-08-19T10:18:44;7.90;;;3.90;;
65822;SDS011;52585;47.566;19.056;2022-08-19T10:21:17;7.90;;;5.50;;
65822;SDS011;52585;47.566;19.056;2022-08-19T10:23:47;10.90;;;8.60;;
65822;SDS011;52585;47.566;19.056;2022-08-19T10:26:18;12.30;;;7.70;;
65822;SDS011;52585;47.566;19.056;2022-08-19T10:28:46;6.40;;;4.90;;
65822;SDS011;52585;47.566;19.056;2022-08-19T10:31:18;14.40;;;4.10;;
65822;SDS011;52585;47.566;19.056;2022-08-19T10:33:47;4.20;;;3.90;;
65822;SDS011;52585;47.566;19.056;2022-08-19T10:36:16;4.40;;;4.10;;
65822;SDS011;52585;47.566;19.056;2022-08-19T10:38:45;9.90;;;3.70;;
65822;SDS011;52585;47.566;19.056;2022-08-19T10:41:16;10.40;;;4.00;;
65822;SDS011;52585;47.566;19.056;2022-08-19T10:43:44;12.30;;;4.10;;
65822;SDS011;52585;47.566;19.056;2022-08-19T10:46:13;11.20;;;4.00;;
65822;SDS011;52585;47.566;19.056;2022-08-19T10:48:41;7.20;;;4.00;;
65822;SDS011;52585;47.566;19.056;2022-08-19T10:51:08;8.40;;;4.10;;
65822;SDS011;52585;47.566;19.056;2022-08-19T10:53:54;6.90;;;3.80;;
65822;SDS011;52585;47.566;19.056;2022-08-19T10:56:21;8.90;;;4.10;;
65822;SDS011;52585;47.566;19.056;2022-08-19T10:59:06;4.00;;;3.60;;
65822;SDS011;52585;47.566;19.056;2022-08-19T11:01:33;7.20;;;3.60;;
65822;SDS011;52585;47.566;19.056;2022-08-19T11:04:01;7.90;;;3.90;;
65822;SDS011;52585;47.566;19.056;2022-08-19T11:06:29;6.00;;;3.90;;
65822;SDS011;52585;47.566;19.056;2022-08-19T11:08:56;5.20;;;3.50;;
65822;SDS011;52585;47.566;19.056;2022-08-19T11:11:25;5.50;;;3.70;;
65822;SDS011;52585;47.566;19.056;2022-08-19T11:13:52;4.50;;;3.70;;
65822;SDS011;52585;47.566;19.056;2022-08-19T11:16:26;6.40;;;3.40;;
65822;SDS011;52585;47.566;19.056;2022-08-19T11:18:58;5.60;;;3.60;;
65822;SDS011;52585;47.566;19.056;2022-08-19T11:21:30;9.60;;;3.90;;
65822;SDS011;52585;47.566;19.056;2022-08-19T11:24:00;5.40;;;3.30;;
65822;SDS011;52585;47.566;19.056;2022-08-19T11:26:30;6.30;;;3.80;;
65822;SDS011;52585;47.566;19.056;2022-08-19T11:28:57;11.20;;;3.70;;
65822;SDS011;52585;47.566;19.056;2022-08-19T11:31:26;7.70;;;3.90;;
65822;SDS011;52585;47.566;19.056;2022-08-19T11:34:00;6.60;;;3.60;;
65822;SDS011;52585;47.566;19.056;2022-08-19T11:36:29;8.60;;;3.60;;
65822;SDS011;52585;47.566;19.056;2022-08-19T11:38:55;5.50;;;3.70;;
65822;SDS011;52585;47.566;19.056;2022-08-19T11:41:22;12.10;;;3.90;;
65822;SDS011;52585;47.566;19.056;2022-08-19T11:43:50;7.30;;;3.70;;
65822;SDS011;52585;47.566;19.056;2022-08-19T11:46:19;7.10;;;4.30;;
65822;SDS011;52585;47.566;19.056;2022-08-19T11:48:45;8.50;;;4.20;;
65822;SDS011;52585;47.566;19.056;2022-08-19T11:51:14;13.80;;;4.30;;
65822;SDS011;52585;47.566;19.056;2022-08-19T11:53:43;15.40;;;4.80;;
65822;SDS011;52585;47.566;19.056;2022-08-19T11:56:10;10.10;;;5.00;;
65822;SDS011;52585;47.566;19.056;2022-08-19T11:58:36;11.20;;;4.70;;
65822;SDS011;52585;47.566;19.056;2022-08-19T12:01:06;15.20;;;4.70;;
65822;SDS011;52585;47.566;19.056;2022-08-19T12:03:34;27.90;;;4.90;;
65822;SDS011;52585;47.566;19.056;2022-08-19T12:06:13;21.40;;;4.50;;
65822;SDS011;52585;47.566;19.056;2022-08-19T12:08:47;26.40;;;4.90;;
65822;SDS011;52585;47.566;19.056;2022-08-19T12:11:13;23.90;;;4.70;;
65822;SDS011;52585;47.566;19.056;2022-08-19T12:13:40;14.40;;;5.00;;
65822;SDS011;52585;47.566;19.056;2022-08-19T12:16:11;35.90;;;7.40;;
65822;SDS011;52585;47.566;19.056;2022-08-19T12:18:40;28.40;;;5.90;;
65822;SDS011;52585;47.566;19.056;2022-08-19T12:21:11;12.00;;;4.90;;
65822;SDS011;52585;47.566;19.056;2022-08-19T12:23:42;13.40;;;4.40;;
65822;SDS011;52585;47.566;19.056;2022-08-19T12:26:11;9.70;;;4.50;;
65822;SDS011;52585;47.566;19.056;2022-08-19T12:28:37;11.60;;;4.70;;
65822;SDS011;52585;47.566;19.056;2022-08-19T12:31:03;7.50;;;6.00;;
65822;SDS011;52585;47.566;19.056;2022-08-19T12:33:30;11.70;;;6.50;;
65822;SDS011;52585;47.566;19.056;2022-08-19T12:36:03;11.60;;;5.40;;
65822;SDS011;52585;47.566;19.056;2022-08-19T12:38:31;12.20;;;4.70;;
65822;SDS011;52585;47.566;19.056;2022-08-19T12:40:59;10.60;;;4.80;;
65822;SDS011;52585;47.566;19.056;2022-08-19T12:43:26;4.80;;;4.30;;
65822;SDS011;52585;47.566;19.056;2022-08-19T12:45:52;8.80;;;4.70;;
65822;SDS011;52585;47.566;19.056;2022-08-19T12:48:18;11.90;;;6.50;;
65822;SDS011;52585;47.566;19.056;2022-08-19T12:50:44;13.40;;;8.00;;
65822;SDS011;52585;47.566;19.056;2022-08-19T12:53:11;15.00;;;8.60;;
65822;SDS011;52585;47.566;19.056;2022-08-19T12:55:37;14.10;;;7.60;;
65822;SDS011;52585;47.566;19.056;2022-08-19T12:58:06;11.90;;;8.00;;
65822;SDS011;52585;47.566;19.056;2022-08-19T13:00:33;12.30;;;6.60;;
65822;SDS011;52585;47.566;19.056;2022-08-19T13:02:59;12.10;;;7.20;;
65822;SDS011;52585;47.566;19.056;2022-08-19T13:05:28;12.80;;;6.30;;
65822;SDS011;52585;47.566;19.056;2022-08-19T13:07:57;11.40;;;6.70;;
65822;SDS011;52585;47.566;19.056;2022-08-19T13:10:27;12.00;;;6.50;;
65822;SDS011;52585;47.566;19.056;2022-08-19T13:12:55;12.70;;;6.40;;
65822;SDS011;52585;47.566;19.056;2022-08-19T13:15:23;11.00;;;6.80;;
65822;SDS011;52585;47.566;19.056;2022-08-19T13:17:50;15.30;;;7.60;;
65822;SDS011;52585;47.566;19.056;2022-08-19T13:20:20;19.00;;;8.20;;
65822;SDS011;52585;47.566;19.056;2022-08-19T13:22:47;18.30;;;8.70;;
65822;SDS011;52585;47.566;19.056;2022-08-19T13:25:14;20.10;;;8.00;;
65822;SDS011;52585;47.566;19.056;2022-08-19T13:27:43;10.50;;;8.10;;
65822;SDS011;52585;47.566;19.056;2022-08-19T13:30:11;16.90;;;8.40;;
65822;SDS011;52585;47.566;19.056;2022-08-19T13:33:04;15.10;;;8.30;;
65822;SDS011;52585;47.566;19.056;2022-08-19T13:35:51;13.30;;;8.10;;
65822;SDS011;52585;47.566;19.056;2022-08-19T13:38:23;18.80;;;9.40;;
65822;SDS011;52585;47.566;19.056;2022-08-19T13:40:50;14.90;;;8.50;;
65822;SDS011;52585;47.566;19.056;2022-08-19T13:43:19;14.40;;;8.70;;
65822;SDS011;52585;47.566;19.056;2022-08-19T13:45:51;20.80;;;9.00;;
65822;SDS011;52585;47.566;19.056;2022-08-19T13:48:22;14.50;;;8.30;;
65822;SDS011;52585;47.566;19.056;2022-08-19T13:50:48;16.00;;;7.80;;
65822;SDS011;52585;47.566;19.056;2022-08-19T13:53:15;14.60;;;8.40;;
65822;SDS011;52585;47.566;19.056;2022-08-19T13:55:43;18.20;;;7.70;;
65822;SDS011;52585;47.566;19.056;2022-08-19T13:58:10;11.20;;;7.80;;
65822;SDS011;52585;47.566;19.056;2022-08-19T14:00:41;16.10;;;6.60;;
65822;SDS011;52585;47.566;19.056;2022-08-19T14:03:09;13.70;;;5.60;;
65822;SDS011;52585;47.566;19.056;2022-08-19T14:05:36;12.10;;;4.70;;
65822;SDS011;52585;47.566;19.056;2022-08-19T14:08:03;11.80;;;4.50;;
65822;SDS011;52585;47.566;19.056;2022-08-19T14:10:39;28.40;;;4.20;;
65822;SDS011;52585;47.566;19.056;2022-08-19T14:13:09;57.30;;;6.20;;
65822;SDS011;52585;47.566;19.056;2022-08-19T14:15:35;35.80;;;4.10;;
65822;SDS011;52585;47.566;19.056;2022-08-19T14:18:02;14.70;;;3.10;;
65822;SDS011;52585;47.566;19.056;2022-08-19T14:20:28;13.60;;;3.50;;
65822;SDS011;52585;47.566;19.056;2022-08-19T14:22:54;27.60;;;3.90;;
65822;SDS011;52585;47.566;19.056;2022-08-19T14:25:25;21.50;;;3.90;;
65822;SDS011;52585;47.566;19.056;2022-08-19T14:27:52;19.10;;;3.50;;
65822;SDS011;52585;47.566;19.056;2022-08-19T14:30:24;21.20;;;3.90;;
65822;SDS011;52585;47.566;19.056;2022-08-19T14:32:57;16.40;;;3.70;;
65822;SDS011;52585;47.566;19.056;2022-08-19T14:35:25;13.60;;;3.20;;
65822;SDS011;52585;47.566;19.056;2022-08-19T14:37:53;19.20;;;3.80;;
65822;SDS011;52585;47.566;19.056;2022-08-19T14:40:22;13.50;;;3.30;;
65822;SDS011;52585;47.566;19.056;2022-08-19T14:42:56;21.80;;;3.40;;
65822;SDS011;52585;47.566;19.056;2022-08-19T14:45:27;12.00;;;3.30;;
65822;SDS011;52585;47.566;19.056;2022-08-19T14:47:54;14.80;;;3.10;;
65822;SDS011;52585;47.566;19.056;2022-08-19T14:50:20;17.20;;;3.20;;
65822;SDS011;52585;47.566;19.056;2022-08-19T14:52:47;15.40;;;2.90;;
65822;SDS011;52585;47.566;19.056;2022-08-19T14:55:15;13.50;;;3.50;;
65822;SDS011;52585;47.566;19.056;2022-08-19T14:57:42;14.60;;;2.60;;
65822;SDS011;52585;47.566;19.056;2022-08-19T15:00:10;15.40;;;3.30;;
65822;SDS011;52585;47.566;19.056;2022-08-19T15:02:42;16.60;;;3.10;;
65822;SDS011;52585;47.566;19.056;2022-08-19T15:05:11;17.40;;;3.20;;
65822;SDS011;52585;47.566;19.056;2022-08-19T15:07:38;14.00;;;3.30;;
65822;SDS011;52585;47.566;19.056;2022-08-19T15:10:06;13.00;;;3.20;;
65822;SDS011;52585;47.566;19.056;2022-08-19T15:12:34;14.20;;;2.50;;
65822;SDS011;52585;47.566;19.056;2022-08-19T15:15:01;14.10;;;3.10;;
65822;SDS011;52585;47.566;19.056;2022-08-19T15:17:27;18.40;;;2.80;;
65822;SDS011;52585;47.566;19.056;2022-08-19T15:19:55;12.70;;;2.80;;
65822;SDS011;52585;47.566;19.056;2022-08-19T15:22:21;16.20;;;3.10;;
65822;SDS011;52585;47.566;19.056;2022-08-19T15:24:47;21.40;;;2.90;;
65822;SDS011;52585;47.566;19.056;2022-08-19T15:27:13;12.40;;;2.50;;
65822;SDS011;52585;47.566;19.056;2022-08-19T15:29:39;11.50;;;2.90;;
65822;SDS011;52585;47.566;19.056;2022-08-19T15:32:07;12.40;;;2.50;;
65822;SDS011;52585;47.566;19.056;2022-08-19T15:34:34;13.20;;;2.60;;
65822;SDS011;52585;47.566;19.056;2022-08-19T15:37:00;11.70;;;3.60;;
65822;SDS011;52585;47.566;19.056;2022-08-19T15:39:26;10.50;;;2.40;;
65822;SDS011;52585;47.566;19.056;2022-08-19T15:41:52;9.60;;;2.60;;
65822;SDS011;52585;47.566;19.056;2022-08-19T15:44:18;11.70;;;3.00;;
65822;SDS011;52585;47.566;19.056;2022-08-19T15:46:47;20.20;;;2.90;;
65822;SDS011;52585;47.566;19.056;2022-08-19T15:49:15;14.10;;;2.90;;
65822;SDS011;52585;47.566;19.056;2022-08-19T15:51:45;12.20;;;2.90;;
65822;SDS011;52585;47.566;19.056;2022-08-19T15:54:17;9.90;;;2.40;;
65822;SDS011;52585;47.566;19.056;2022-08-19T15:56:47;9.30;;;2.40;;
65822;SDS011;52585;47.566;19.056;2022-08-19T15:59:34;14.00;;;2.40;;
65822;SDS011;52585;47.566;19.056;2022-08-19T16:02:21;11.60;;;2.50;;
65822;SDS011;52585;47.566;19.056;2022-08-19T16:05:11;8.60;;;2.20;;
65822;SDS011;52585;47.566;19.056;2022-08-19T16:07:57;8.20;;;2.30;;
65822;SDS011;52585;47.566;19.056;2022-08-19T16:10:24;16.40;;;2.40;;
65822;SDS011;52585;47.566;19.056;2022-08-19T16:12:50;10.10;;;2.20;;
65822;SDS011;52585;47.566;19.056;2022-08-19T16:15:16;6.60;;;2.40;;
65822;SDS011;52585;47.566;19.056;2022-08-19T16:17:41;10.20;;;2.50;;
65822;SDS011;52585;47.566;19.056;2022-08-19T16:20:08;8.60;;;2.40;;
65822;SDS011;52585;47.566;19.056;2022-08-19T16:22:36;6.60;;;2.20;;
65822;SDS011;52585;47.566;19.056;2022-08-19T16:25:04;13.30;;;2.60;;